Time;durP1;ratioP1;P1;durP2;ratioP2;P2;SDS_P1;SDS_P2;PMS_P1;PMS_P2;Temp;Humidity;BMP_temperature;BMP_pressure;BME280_temperature;BME280_humidity;BME280_pressure;Samples;Min_cycle;Max_cycle;Signal;HPM_P1;HPM_P2
2023/12/01 00:00:21;;;;;;;31.27;21.23;;;3.90;1.00;;;2.29;100.00;98954.97;4974808;28;20055;-77
2023/12/01 00:02:48;;;;;;;30.33;22.67;;;4.00;1.00;;;2.49;100.00;98991.03;4979313;28;20055;-78
2023/12/01 00:05:15;;;;;;;32.67;21.25;;;3.90;1.00;;;2.34;100.00;98960.94;4945148;28;20050;-78
2023/12/01 00:07:42;;;;;;;28.30;20.73;;;3.90;1.00;;;2.41;100.00;98970.34;4943124;28;20114;-78
2023/12/01 00:10:11;;;;;;;29.35;21.38;;;4.00;1.00;;;2.50;100.00;98980.63;4955266;28;20170;-77
2023/12/01 00:12:38;;;;;;;31.98;20.88;;;4.00;1.00;;;2.46;100.00;98959.91;4969728;28;20654;-78
2023/12/01 00:15:07;;;;;;;31.25;21.10;;;3.70;1.00;;;2.53;100.00;98967.59;4966360;28;20072;-78
2023/12/01 00:17:34;;;;;;;29.77;20.90;;;4.10;1.00;;;2.47;100.00;98972.91;4967456;28;20139;-78
2023/12/01 00:20:01;;;;;;;29.48;21.08;;;4.00;1.00;;;2.50;100.00;98961.63;4970664;28;20051;-77
2023/12/01 00:22:28;;;;;;;29.35;20.65;;;4.00;1.00;;;2.49;100.00;98958.16;4955433;28;20125;-78
2023/12/01 00:24:55;;;;;;;28.15;21.05;;;5.10;1.00;;;2.31;100.00;98941.06;4937866;28;20146;-77
2023/12/01 00:27:22;;;;;;;29.08;21.30;;;4.00;1.00;;;2.49;100.00;98970.25;4954851;28;20042;-78
2023/12/01 00:29:49;;;;;;;28.45;21.00;;;4.00;1.00;;;2.41;100.00;98945.28;4971986;28;20141;-78
2023/12/01 00:32:16;;;;;;;27.83;20.33;;;4.00;1.00;;;2.38;100.00;98957.44;4975995;28;20116;-78
2023/12/01 00:34:43;;;;;;;28.90;21.25;;;3.90;1.00;;;2.38;100.00;98968.69;4990257;28;20068;-77
2023/12/01 00:37:30;;;;;;;26.00;19.85;;;4.00;1.00;;;2.38;100.00;98966.09;4995218;28;20539;-78
2023/12/01 00:39:58;;;;;;;25.13;19.90;;;4.00;1.00;;;2.43;100.00;98997.19;5005837;28;20108;-78
2023/12/01 00:42:25;;;;;;;27.17;20.30;;;4.00;1.00;;;2.43;100.00;98999.78;4990720;28;20046;-77
2023/12/01 00:44:52;;;;;;;28.65;19.27;;;4.00;1.00;;;2.18;100.00;98945.56;4989015;28;20505;-77
2023/12/01 00:47:19;;;;;;;31.23;21.77;;;4.00;1.00;;;2.31;100.00;98961.00;4971825;28;20050;-78
2023/12/01 00:49:46;;;;;;;26.63;19.38;;;4.00;1.00;;;2.32;100.00;98949.72;5006340;28;20407;-78
2023/12/01 00:52:13;;;;;;;29.38;21.88;;;4.00;1.00;;;2.27;100.00;98947.19;5007749;28;20046;-78
2023/12/01 00:54:41;;;;;;;27.63;20.38;;;4.00;1.00;;;2.16;100.00;98946.47;5014930;28;20038;-78
2023/12/01 00:57:08;;;;;;;28.80;21.80;;;4.00;1.00;;;2.45;100.00;98986.75;4990220;28;20062;-78
2023/12/01 00:59:35;;;;;;;28.92;19.25;;;3.90;1.00;;;2.36;100.00;98975.63;4989511;28;20563;-77
2023/12/01 01:02:03;;;;;;;28.08;19.08;;;3.90;1.00;;;2.41;100.00;98979.03;5022348;28;20038;-77
2023/12/01 01:04:30;;;;;;;30.10;20.08;;;4.00;1.00;;;2.41;100.00;98970.34;4988562;28;20054;-77
2023/12/01 01:06:57;;;;;;;27.60;20.15;;;4.00;1.00;;;2.35;100.00;98967.84;4993826;28;20062;-77
2023/12/01 01:09:24;;;;;;;28.58;20.42;;;3.90;1.00;;;2.51;100.00;98989.31;4985845;28;20053;-77
2023/12/01 01:11:51;;;;;;;30.38;20.65;;;4.00;1.00;;;2.40;100.00;98968.66;5002780;28;20054;-77
2023/12/01 01:14:18;;;;;;;27.42;19.58;;;4.00;1.00;;;2.38;100.00;98980.78;4988016;28;20044;-77
2023/12/01 01:16:45;;;;;;;29.33;21.20;;;3.90;1.00;;;2.32;100.00;98952.34;5003142;28;20039;-78
2023/12/01 01:19:12;;;;;;;27.77;19.40;;;4.00;1.00;;;2.38;100.00;98960.91;4989530;28;20460;-76
2023/12/01 01:21:39;;;;;;;28.33;19.75;;;3.90;1.00;;;2.29;100.00;98960.16;4989039;28;20042;-77
2023/12/01 01:24:07;;;;;;;29.88;21.30;;;3.90;1.00;;;2.40;100.00;98979.91;5004062;28;20105;-77
2023/12/01 01:26:33;;;;;;;28.30;20.75;;;3.90;1.00;;;2.39;100.00;98980.78;4968618;28;20047;-77
2023/12/01 01:29:00;;;;;;;26.27;18.80;;;4.00;1.00;;;2.41;100.00;98980.75;5004541;28;20046;-78
2023/12/01 01:31:27;;;;;;;30.35;21.48;;;4.00;1.00;;;2.39;100.00;98985.09;5005640;28;20456;-78
2023/12/01 01:33:54;;;;;;;29.48;19.85;;;3.90;1.00;;;2.28;100.00;98979.22;4988124;28;20054;-77
2023/12/01 01:36:21;;;;;;;26.58;20.52;;;4.00;1.00;;;2.47;100.00;98992.78;5005813;28;20053;-78
2023/12/01 01:38:49;;;;;;;27.27;20.02;;;4.00;1.00;;;2.51;100.00;98997.09;4989068;28;20050;-77
2023/12/01 01:41:16;;;;;;;30.92;20.83;;;4.00;1.00;;;2.52;100.00;99001.41;4997496;28;20550;-77
2023/12/01 01:43:43;;;;;;;34.88;24.73;;;4.00;1.00;;;2.52;100.00;99001.41;4980203;28;20057;-76
2023/12/01 01:46:11;;;;;;;34.38;23.33;;;4.00;1.00;;;2.52;100.00;99014.38;4988678;28;20061;-77
2023/12/01 01:48:41;;;;;;;35.55;22.75;;;5.10;1.00;;;2.50;100.00;99003.16;4985624;28;20802;-77
2023/12/01 01:51:09;;;;;;;33.90;21.40;;;4.10;1.00;;;2.60;100.00;99017.72;4984707;28;20045;-78
2023/12/01 01:53:38;;;;;;;38.15;25.77;;;4.10;1.00;;;2.50;100.00;99003.16;5000431;28;20046;-77
2023/12/01 01:56:07;;;;;;;45.60;26.30;;;4.10;1.00;;;2.59;100.00;99020.34;4999835;28;20045;-77
2023/12/01 01:58:34;;;;;;;37.22;24.38;;;4.10;1.00;;;2.57;100.00;99020.38;4997431;28;20290;-77
2023/12/01 02:01:01;;;;;;;36.50;25.40;;;4.00;1.00;;;2.58;100.00;99023.84;4989282;28;20058;-77
2023/12/01 02:03:28;;;;;;;36.70;23.77;;;4.10;1.00;;;2.54;100.00;99023.00;5005016;28;20474;-77
2023/12/01 02:05:57;;;;;;;37.50;24.45;;;4.00;1.00;;;2.60;100.00;99046.28;5008795;28;20456;-77
2023/12/01 02:08:29;;;;;;;36.70;24.42;;;4.00;1.00;;;2.58;100.00;99039.41;5004804;28;20444;-77
2023/12/01 02:10:57;;;;;;;39.58;26.00;;;4.10;1.00;;;2.44;100.00;99017.06;5005178;28;20085;-77
2023/12/01 02:13:24;;;;;;;38.15;26.27;;;4.10;1.00;;;2.41;100.00;99007.59;4988329;28;20046;-77
2023/12/01 02:15:52;;;;;;;40.08;25.67;;;4.10;1.00;;;2.58;100.00;99035.06;4997126;28;20057;-76
2023/12/01 02:18:25;;;;;;;42.20;27.27;;;4.10;1.00;;;2.56;100.00;99029.03;5003414;28;20141;-77
2023/12/01 02:20:55;;;;;;;35.30;24.02;;;4.10;1.00;;;2.51;100.00;99026.50;4997152;28;20042;-77
2023/12/01 02:23:22;;;;;;;37.90;24.10;;;4.10;1.00;;;2.57;100.00;99037.66;4987831;28;20049;-77
2023/12/01 02:25:50;;;;;;;41.88;26.92;;;4.10;1.00;;;2.46;100.00;99006.66;4987427;28;20452;-77
2023/12/01 02:28:17;;;;;;;42.17;26.83;;;4.10;1.00;;;2.55;100.00;99030.75;5001343;28;20497;-77
2023/12/01 02:30:52;;;;;;;45.58;25.60;;;4.10;1.00;;;2.54;100.00;99033.41;5001136;28;20439;-77
2023/12/01 02:33:20;;;;;;;40.53;26.15;;;4.10;1.00;;;2.55;100.00;99035.94;4997283;28;20363;-77
2023/12/01 02:35:47;;;;;;;34.58;24.48;;;4.20;1.00;;;2.67;100.00;99049.66;4992931;28;20393;-77
2023/12/01 02:38:15;;;;;;;41.55;26.77;;;4.10;1.00;;;2.54;100.00;99021.25;5019774;28;20063;-77
2023/12/01 02:40:49;;;;;;;36.97;25.13;;;4.10;1.00;;;2.63;100.00;99030.66;4996624;28;20061;-77
2023/12/01 02:43:18;;;;;;;38.85;25.80;;;4.10;1.00;;;2.50;100.00;99011.78;4992597;28;20054;-77
2023/12/01 02:45:45;;;;;;;39.13;26.20;;;4.00;1.00;;;2.55;100.00;99035.13;4991969;28;20141;-79
2023/12/01 02:48:13;;;;;;;37.67;25.33;;;4.00;1.00;;;2.53;100.00;99037.72;4992672;28;20509;-77
2023/12/01 02:50:40;;;;;;;35.50;24.40;;;4.10;1.00;;;2.51;100.00;99043.81;4992150;28;20514;-77
2023/12/01 02:53:07;;;;;;;46.17;26.58;;;4.00;1.00;;;2.56;100.00;99044.63;4983914;28;20174;-77
2023/12/01 02:55:34;;;;;;;36.30;25.20;;;4.10;1.00;;;2.56;100.00;99049.81;4990720;28;20152;-77
2023/12/01 02:58:01;;;;;;;39.00;25.42;;;4.10;1.00;;;2.55;100.00;99048.94;4975713;28;20054;-77
2023/12/01 03:00:29;;;;;;;38.05;23.70;;;4.00;1.00;;;2.43;100.00;99030.94;5005935;28;20058;-77
2023/12/01 03:02:56;;;;;;;35.85;25.02;;;4.10;1.00;;;2.52;100.00;99038.59;4994877;28;20042;-77
2023/12/01 03:05:24;;;;;;;32.38;24.20;;;4.00;1.00;;;2.46;100.00;99033.50;4988157;28;20097;-77
2023/12/01 03:07:51;;;;;;;32.50;23.30;;;4.10;1.00;;;2.53;100.00;99049.84;4983895;28;20422;-76
2023/12/01 03:10:18;;;;;;;36.25;25.27;;;4.00;1.00;;;2.47;100.00;99034.34;5000041;28;20046;-78
2023/12/01 03:12:46;;;;;;;32.63;21.75;;;4.00;1.00;;;2.46;100.00;99043.00;4975311;28;20081;-78
2023/12/01 03:15:19;;;;;;;35.03;21.70;;;4.00;1.00;;;2.50;100.00;99058.53;4989424;28;20054;-77
2023/12/01 03:17:47;;;;;;;35.15;22.83;;;4.10;1.00;;;2.50;100.00;99048.16;5006987;28;20038;-78
2023/12/01 03:20:16;;;;;;;39.67;24.73;;;4.10;1.00;;;2.57;100.00;99053.25;5000455;28;20050;-77
2023/12/01 03:22:46;;;;;;;34.70;23.85;;;4.10;1.00;;;2.51;100.00;99030.84;5014289;28;20503;-76
2023/12/01 03:25:13;;;;;;;35.58;22.67;;;4.20;1.00;;;2.26;100.00;98994.78;5005518;28;20054;-77
2023/12/01 03:27:46;;;;;;;36.92;24.23;;;4.40;1.00;;;2.59;100.00;99046.34;4994494;28;20057;-77
2023/12/01 03:30:18;;;;;;;36.50;24.08;;;4.10;1.00;;;2.46;100.00;99033.50;5014712;28;20050;-76
2023/12/01 03:32:53;;;;;;;37.53;24.52;;;4.10;1.00;;;2.43;100.00;99043.91;4990893;28;20125;-76
2023/12/01 03:35:24;;;;;;;35.90;22.80;;;4.10;1.00;;;2.47;100.00;99039.53;4974147;28;20080;-77
2023/12/01 03:37:57;;;;;;;33.15;22.80;;;4.00;1.00;;;2.48;100.00;99017.88;5006722;28;20043;-77
2023/12/01 03:40:25;;;;;;;31.80;21.95;;;4.00;1.00;;;2.44;100.00;99008.41;5006709;28;20058;-77
2023/12/01 03:42:53;;;;;;;34.53;22.35;;;4.00;1.00;;;2.42;100.00;99011.06;4990106;28;20035;-77
2023/12/01 03:45:20;;;;;;;32.95;21.02;;;4.10;1.00;;;2.51;100.00;99021.31;4994357;28;20052;-77
2023/12/01 03:47:50;;;;;;;34.58;21.85;;;4.10;1.00;;;2.47;100.00;99019.63;5001794;28;20130;-77
2023/12/01 03:50:21;;;;;;;27.45;18.85;;;4.00;1.00;;;2.51;100.00;99052.47;4991512;28;20051;-76
2023/12/01 03:52:51;;;;;;;32.60;22.05;;;4.00;1.00;;;2.41;100.00;99043.94;5003648;28;20050;-77
2023/12/01 03:55:18;;;;;;;;;;;4.00;1.00;;;2.38;100.00;99043.97;4990434;28;20479;-77
2023/12/01 03:57:45;;;;;;;29.05;21.10;;;4.00;1.00;;;2.45;100.00;99052.53;4987979;28;20285;-77
2023/12/01 04:00:16;;;;;;;29.85;21.90;;;3.90;1.00;;;2.47;100.00;99063.78;4987658;28;20370;-77
2023/12/01 04:02:47;;;;;;;28.50;20.45;;;4.00;1.00;;;2.48;100.00;99062.00;5004490;28;20145;-78
2023/12/01 04:05:21;;;;;;;28.38;19.10;;;4.00;1.00;;;2.44;100.00;99037.84;4990601;28;20133;-78
2023/12/01 04:07:54;;;;;;;22.00;17.85;;;4.00;1.00;;;2.44;100.00;99042.16;5006783;28;20082;-77
2023/12/01 04:10:25;;;;;;;31.38;20.10;;;4.00;1.00;;;2.52;100.00;99054.19;4991434;28;20413;-78
2023/12/01 04:12:54;;;;;;;26.50;20.10;;;4.00;1.00;;;2.58;100.00;99052.41;4975389;28;20552;-78
2023/12/01 04:15:24;;;;;;;28.35;20.10;;;4.00;1.00;;;2.47;100.00;99036.94;4989820;28;20042;-77
2023/12/01 04:17:52;;;;;;;29.67;20.60;;;4.00;1.00;;;2.33;100.00;99012.00;5000380;28;20051;-78
2023/12/01 04:20:25;;;;;;;22.75;17.77;;;4.00;1.00;;;2.43;100.00;99049.13;4990924;28;20050;-77
2023/12/01 04:22:59;;;;;;;23.60;17.55;;;4.00;1.00;;;2.36;100.00;99024.97;5007102;28;20053;-78
2023/12/01 04:25:27;;;;;;;28.65;18.83;;;4.00;1.00;;;2.32;100.00;99023.25;4989540;28;20558;-78
2023/12/01 04:27:57;;;;;;;27.55;20.10;;;5.30;1.00;;;2.34;100.00;99031.91;4974979;28;20042;-77
2023/12/01 04:30:25;;;;;;;27.23;20.23;;;3.90;1.00;;;2.25;100.00;99013.84;4995888;28;20046;-77
2023/12/01 04:32:54;;;;;;;28.25;19.50;;;3.90;1.00;;;2.19;100.00;99006.13;5008913;28;20046;-77
2023/12/01 04:35:27;;;;;;;27.58;20.77;;;4.00;1.00;;;2.31;100.00;99026.72;4973765;28;20114;-78
2023/12/01 04:37:55;;;;;;;25.17;18.35;;;3.90;1.00;;;2.36;100.00;99022.38;5007097;28;20132;-77
2023/12/01 04:40:24;;;;;;;23.73;19.02;;;3.90;1.00;;;2.34;100.00;99018.94;4990642;28;20460;-77
2023/12/01 04:42:52;;;;;;;23.52;18.92;;;3.90;1.00;;;2.31;100.00;99016.34;4990895;28;20589;-77
2023/12/01 04:45:24;;;;;;;26.52;19.60;;;3.80;1.00;;;2.25;100.00;99000.88;4989656;28;20054;-77
2023/12/01 04:47:54;;;;;;;26.10;19.02;;;3.90;1.00;;;2.34;100.00;99015.47;4991236;28;20046;-77
2023/12/01 04:50:27;;;;;;;24.40;18.55;;;3.80;1.00;;;2.25;100.00;99014.69;5008470;28;20112;-77
2023/12/01 04:53:00;;;;;;;24.40;17.80;;;3.80;1.00;;;2.10;100.00;99007.94;4996805;28;20630;-79
2023/12/01 04:55:29;;;;;;;26.92;18.80;;;3.80;1.00;;;1.58;100.00;98951.47;4994870;28;20050;-81
2023/12/01 04:57:58;;;;;;;26.35;18.20;;;3.80;1.00;;;1.89;100.00;99018.56;5001786;28;20076;-81
2023/12/01 05:00:26;;;;;;;25.17;20.67;;;3.70;1.00;;;1.91;100.00;99025.44;4975833;28;20050;-81
2023/12/01 05:03:04;;;;;;;27.65;19.70;;;3.70;1.00;;;1.96;100.00;99015.91;4993743;28;20057;-82
2023/12/01 05:05:34;;;;;;;27.40;20.77;;;3.60;1.30;;;1.85;100.00;98984.00;4994748;28;20155;-78
2023/12/01 05:08:05;;;;;;;28.20;18.80;;;3.60;1.20;;;2.00;100.00;98995.09;4992923;28;20122;-80
2023/12/01 05:10:34;;;;;;;30.42;20.17;;;3.70;1.00;;;2.06;100.00;99005.41;4983770;28;20061;-80
2023/12/01 05:13:06;;;;;;;23.98;19.13;;;3.70;1.00;;;2.25;100.00;99052.78;4992726;28;20162;-79
2023/12/01 05:15:36;;;;;;;27.20;19.73;;;3.70;1.00;;;2.10;100.00;99039.09;5001248;28;20821;-79
2023/12/01 05:18:07;;;;;;;28.08;21.35;;;3.70;1.00;;;2.12;100.00;99047.72;4976866;28;20157;-78
2023/12/01 05:20:34;;;;;;;28.35;20.42;;;3.80;1.00;;;2.17;100.00;99062.38;5012620;28;20069;-79
2023/12/01 05:23:05;;;;;;;29.92;19.48;;;3.70;1.00;;;2.14;100.00;99055.50;5024995;28;20034;-78
2023/12/01 05:25:33;;;;;;;25.92;19.08;;;3.80;1.00;;;2.23;100.00;99070.94;4999422;28;20210;-79
2023/12/01 05:28:07;;;;;;;24.20;19.38;;;3.80;1.00;;;2.33;100.00;99084.69;4993494;28;20054;-78
2023/12/01 05:30:47;;;;;;;24.95;18.25;;;3.80;1.00;;;2.22;100.00;99063.19;4993708;28;20062;-78
2023/12/01 05:33:15;;;;;;;24.05;18.05;;;3.80;1.00;;;2.08;100.00;99045.16;5007399;28;20058;-79
2023/12/01 05:35:42;;;;;;;24.73;18.95;;;3.80;1.00;;;2.10;100.00;99046.00;5006094;28;20047;-79
2023/12/01 05:38:10;;;;;;;21.98;18.48;;;3.80;1.00;;;2.28;100.00;99086.47;4985582;28;20050;-78
2023/12/01 05:40:37;;;;;;;24.35;18.77;;;3.70;1.00;;;2.09;100.00;99052.06;4998103;28;20034;-79
2023/12/01 05:43:06;;;;;;;24.75;18.67;;;3.70;1.00;;;1.93;100.00;99034.06;4991456;28;20101;-79
2023/12/01 05:45:37;;;;;;;21.67;17.40;;;3.80;1.00;;;2.25;100.00;99091.69;5007434;28;20062;-79
2023/12/01 05:48:08;;;;;;;22.10;18.73;;;3.70;1.00;;;2.24;100.00;99092.59;5010195;28;20081;-79
2023/12/01 05:50:38;;;;;;;27.23;19.27;;;3.70;1.00;;;2.05;100.00;99064.22;5004414;28;20103;-78
2023/12/01 05:53:10;;;;;;;24.52;18.92;;;3.80;1.00;;;2.23;100.00;99096.06;4979622;28;20042;-78
2023/12/01 05:55:40;;;;;;;23.27;18.10;;;3.80;1.00;;;2.04;100.00;99070.31;5008768;28;20187;-78
2023/12/01 05:58:12;;;;;;;25.10;19.60;;;3.70;1.00;;;1.97;100.00;99058.25;4992418;28;20049;-78
2023/12/01 06:00:41;;;;;;;29.50;21.48;;;3.70;1.00;;;2.23;100.00;99107.28;4992465;28;20046;-78
2023/12/01 06:03:10;;;;;;;22.40;18.05;;;3.80;1.00;;;1.60;100.00;99023.13;5008139;28;20065;-79
2023/12/01 06:05:39;;;;;;;26.20;20.35;;;3.70;1.00;;;2.11;100.00;99102.25;5008409;28;20057;-77
2023/12/01 06:08:08;;;;;;;23.65;18.40;;;5.30;1.00;;;2.24;100.00;99131.50;5016470;28;20485;-79
2023/12/01 06:10:36;;;;;;;25.00;18.55;;;3.80;1.00;;;2.19;100.00;99130.72;4989531;28;20113;-78
2023/12/01 06:13:04;;;;;;;24.63;20.23;;;3.70;1.00;;;2.20;100.00;99120.28;5005876;28;20283;-78
2023/12/01 06:15:31;;;;;;;23.73;18.38;;;3.70;1.00;;;2.07;100.00;99090.16;5012373;28;20041;-78
2023/12/01 06:18:00;;;;;;;24.15;18.25;;;3.70;1.00;;;2.15;100.00;99108.22;4991955;28;20046;-79
2023/12/01 06:20:29;;;;;;;25.40;19.63;;;3.70;1.00;;;2.07;100.00;99098.81;5007214;28;20050;-78
2023/12/01 06:23:05;;;;;;;26.35;18.58;;;3.70;1.00;;;2.04;100.00;99085.00;5012034;28;20125;-78
2023/12/01 06:25:36;;;;;;;25.42;19.25;;;3.80;1.00;;;2.28;100.00;99109.00;4999837;28;20046;-78
2023/12/01 06:28:05;;;;;;;25.58;20.52;;;3.80;1.00;;;2.21;100.00;99103.00;5006776;28;20060;-79
2023/12/01 06:30:34;;;;;;;24.55;19.48;;;3.80;1.00;;;2.21;100.00;99114.22;4974905;28;20089;-78
2023/12/01 06:33:06;;;;;;;22.52;18.25;;;3.80;1.00;;;2.19;100.00;99120.31;4988985;28;20046;-78
2023/12/01 06:35:34;;;;;;;25.73;18.75;;;3.80;1.00;;;2.10;100.00;99118.66;5004897;28;20061;-78
2023/12/01 06:38:02;;;;;;;27.60;21.05;;;3.80;1.00;;;2.00;100.00;99089.34;5005830;28;20046;-77
2023/12/01 06:40:33;;;;;;;27.92;20.30;;;3.80;1.00;;;2.12;100.00;99109.16;4990131;28;20038;-77
2023/12/01 06:43:02;;;;;;;25.42;19.42;;;3.70;1.00;;;1.98;100.00;99109.25;4989279;28;20476;-78
2023/12/01 06:45:30;;;;;;;25.35;19.70;;;3.80;1.00;;;2.18;100.00;99139.34;4973601;28;20105;-78
2023/12/01 06:47:59;;;;;;;25.85;18.60;;;3.70;1.00;;;2.28;100.00;99158.31;5005692;28;20050;-78
2023/12/01 06:50:29;;;;;;;26.73;19.65;;;3.80;1.00;;;2.10;100.00;99129.91;5005780;28;20418;-78
2023/12/01 06:52:59;;;;;;;27.58;21.15;;;5.30;1.00;;;2.12;100.00;99142.88;4989956;28;20053;-78
2023/12/01 06:55:26;;;;;;;30.83;22.60;;;3.80;1.00;;;2.21;100.00;99155.75;4989264;28;20433;-78
2023/12/01 06:57:54;;;;;;;29.90;23.17;;;3.80;1.60;;;2.18;100.00;99144.53;5005944;28;20133;-77
2023/12/01 07:03:03;;;;;;;27.85;19.45;;;3.90;1.00;;;2.35;100.00;99167.75;5006300;28;20054;-78
2023/12/01 07:05:34;;;;;;;27.35;19.95;;;3.80;1.00;;;2.31;100.00;99160.88;5005625;28;20488;-78
2023/12/01 07:08:03;;;;;;;32.70;24.05;;;3.80;1.00;;;2.11;100.00;99130.78;4989403;28;20104;-77
2023/12/01 07:10:34;;;;;;;27.80;20.60;;;3.80;1.00;;;2.30;100.00;99169.53;4989415;28;20109;-78
2023/12/01 07:13:01;;;;;;;32.15;20.95;;;3.80;1.00;;;2.17;100.00;99135.91;4984996;28;20047;-78
2023/12/01 07:15:29;;;;;;;34.45;21.15;;;3.90;1.00;;;2.26;100.00;99153.13;4988907;28;20047;-78
2023/12/01 07:17:58;;;;;;;30.50;21.70;;;4.60;1.00;;;2.32;100.00;99158.25;5005380;28;20027;-78
2023/12/01 07:20:25;;;;;;;29.73;20.42;;;3.90;1.00;;;2.28;100.00;99151.38;4977701;28;20081;-78
2023/12/01 07:22:53;;;;;;;33.55;21.65;;;3.90;2.20;;;2.34;100.00;99147.84;5006017;28;20451;-79
2023/12/01 07:25:21;;;;;;;33.17;22.85;;;3.90;1.00;;;2.20;100.00;99135.03;4987837;28;20492;-78
2023/12/01 07:28:00;;;;;;;28.63;20.88;;;5.40;3.30;;;2.29;100.00;99157.44;4989901;28;20053;-78
2023/12/01 07:30:28;;;;;;;31.10;21.27;;;3.80;1.80;;;2.38;100.00;99167.72;4993045;28;20077;-78
2023/12/01 07:33:00;;;;;;;36.50;23.00;;;3.90;1.70;;;2.09;100.00;99120.41;5006857;28;20516;-78
2023/12/01 07:35:27;;;;;;;29.08;20.48;;;3.90;3.30;;;2.32;100.00;99152.22;4994745;28;20050;-77
2023/12/01 07:37:54;;;;;;;32.03;22.23;;;3.90;2.00;;;2.37;100.00;99160.78;5017749;28;20455;-78
2023/12/01 07:40:23;;;;;;;29.40;20.67;;;3.90;1.80;;;2.40;100.00;99159.03;4997817;28;20054;-77
2023/12/01 07:42:56;;;;;;;35.92;22.55;;;3.90;2.50;;;2.40;100.00;99165.94;4990449;28;20050;-77
2023/12/01 07:45:25;;;;;;;33.20;24.17;;;4.00;2.80;;;2.53;100.00;99192.69;4991442;28;20034;-77
2023/12/01 07:47:54;;;;;;;32.80;23.20;;;4.00;3.30;;;2.50;100.00;99185.78;5009822;28;20046;-77
2023/12/01 07:50:23;;;;;;;30.60;21.17;;;3.90;1.90;;;2.46;100.00;99167.63;5004275;28;20412;-77
2023/12/01 07:52:51;;;;;;;30.75;21.70;;;4.00;5.00;;;2.47;100.00;99170.22;4984539;28;20038;-77
2023/12/01 07:55:22;;;;;;;32.10;20.63;;;4.10;4.60;;;2.35;100.00;99147.84;4989520;28;20078;-76
2023/12/01 07:57:51;;;;;;;33.58;21.88;;;4.20;7.00;;;2.40;100.00;99152.97;4989526;28;20361;-77
2023/12/01 08:00:23;;;;;;;33.30;21.60;;;4.00;5.70;;;2.48;100.00;99166.75;5005097;28;20062;-77
2023/12/01 08:02:52;;;;;;;38.47;22.15;;;4.00;6.30;;;2.50;100.00;99175.38;4989937;28;20039;-77
2023/12/01 08:05:23;;;;;;;35.28;21.98;;;4.10;6.50;;;2.62;100.00;99189.97;4986979;28;20050;-77
2023/12/01 08:07:53;;;;;;;29.13;20.23;;;4.00;4.00;;;2.53;100.00;99166.72;5006043;28;20054;-77
2023/12/01 08:10:25;;;;;;;33.67;22.45;;;4.10;7.00;;;2.53;100.00;99172.75;4989590;28;20795;-76
2023/12/01 08:12:56;;;;;;;;;;;4.10;3.90;;;2.57;100.00;99183.97;5005930;28;20085;-78
2023/12/01 08:15:26;;;;;;;33.33;19.98;;;4.50;1.80;;;2.63;100.00;99206.44;5005712;28;20504;-77
2023/12/01 08:17:56;;;;;;;;;;;4.10;9.70;;;2.39;100.00;99166.84;5005882;28;20580;-77
2023/12/01 08:20:24;;;;;;;34.85;20.73;;;4.00;5.30;;;2.63;100.00;99211.63;4989576;28;19923;-77
2023/12/01 08:22:51;;;;;;;31.75;20.67;;;4.10;10.60;;;2.57;100.00;99201.28;4994871;28;20046;-77
2023/12/01 08:25:21;;;;;;;40.25;23.20;;;4.10;8.80;;;2.58;100.00;99197.84;4997210;28;20436;-77
2023/12/01 08:27:51;;;;;;;38.33;22.35;;;4.40;6.80;;;2.65;100.00;99199.47;5005197;28;20385;-77
2023/12/01 08:30:19;;;;;;;38.30;22.48;;;5.40;5.10;;;2.76;100.00;99213.22;5005149;28;20046;-77
2023/12/01 08:32:53;;;;;;;37.75;23.80;;;4.20;1.40;;;2.75;100.00;99213.22;4989310;28;20042;-77
2023/12/01 08:35:21;;;;;;;42.92;24.05;;;4.30;1.70;;;2.71;100.00;99183.81;5004523;28;20046;-77
2023/12/01 08:37:48;;;;;;;44.25;23.65;;;4.20;3.30;;;2.67;100.00;99174.34;5004911;28;20042;-77
2023/12/01 08:40:15;;;;;;;40.05;24.13;;;4.20;2.40;;;2.68;100.00;99176.94;5005219;28;20100;-77
2023/12/01 08:42:43;;;;;;;40.08;22.75;;;4.10;5.10;;;2.50;100.00;99149.41;5005298;28;20046;-77
2023/12/01 08:45:10;;;;;;;37.78;21.88;;;4.20;4.40;;;2.66;100.00;99194.28;5004727;28;20049;-77
2023/12/01 08:47:40;;;;;;;40.53;24.17;;;4.20;5.10;;;2.63;100.00;99186.50;5005174;28;20085;-77
2023/12/01 08:50:08;;;;;;;38.45;23.77;;;4.20;2.40;;;2.73;100.00;99196.78;4988231;28;20050;-77
2023/12/01 08:52:40;;;;;;;40.40;24.75;;;4.30;4.80;;;2.63;100.00;99178.69;4986112;28;20066;-76
2023/12/01 08:55:08;;;;;;;40.15;25.13;;;4.20;7.00;;;2.74;100.00;99177.72;4972644;28;20138;-77
2023/12/01 08:57:35;;;;;;;41.28;22.63;;;4.30;1.90;;;2.58;100.00;99154.53;4994940;28;20056;-77
2023/12/01 09:00:03;;;;;;;43.15;24.08;;;4.30;4.60;;;2.80;100.00;99199.31;4997598;28;20119;-77
2023/12/01 09:02:30;;;;;;;41.75;23.38;;;4.30;2.80;;;2.74;100.00;99196.78;4988338;28;20047;-77
2023/12/01 09:04:57;;;;;;;42.33;25.23;;;4.30;3.20;;;2.88;100.00;99213.94;4988332;28;20121;-76
2023/12/01 09:07:24;;;;;;;43.00;25.20;;;4.30;1.00;;;2.78;100.00;99202.78;4989885;28;20128;-77
2023/12/01 09:09:58;;;;;;;40.10;24.60;;;5.20;1.00;;;2.71;100.00;99191.59;4989092;28;20085;-77
2023/12/01 09:12:26;;;;;;;46.85;26.48;;;4.40;3.60;;;2.64;100.00;99164.00;5004599;28;20049;-77
2023/12/01 09:14:54;;;;;;;45.38;25.90;;;4.30;3.30;;;2.81;100.00;99197.56;4974067;28;20520;-76
2023/12/01 09:17:21;;;;;;;42.78;22.63;;;4.40;3.90;;;2.81;100.00;99198.44;4972134;28;20077;-77
2023/12/01 09:19:49;;;;;;;41.75;24.38;;;4.40;3.10;;;2.87;100.00;99205.31;5002509;28;20050;-77
2023/12/01 09:22:17;;;;;;;38.28;24.35;;;4.40;3.50;;;2.81;100.00;99174.16;4999294;28;20057;-77
2023/12/01 09:24:45;;;;;;;47.22;26.45;;;5.60;1.60;;;2.93;100.00;99196.59;5012707;28;20050;-77
2023/12/01 09:27:14;;;;;;;42.35;24.25;;;4.40;1.00;;;2.94;100.00;99198.28;4998848;28;20051;-77
2023/12/01 09:29:41;;;;;;;38.78;22.25;;;4.40;4.30;;;2.99;100.00;99214.69;5005102;28;20165;-77
2023/12/01 09:32:08;;;;;;;42.60;26.02;;;4.50;3.00;;;2.91;100.00;99200.94;4998571;28;20117;-78
2023/12/01 09:34:35;;;;;;;41.38;25.38;;;4.40;4.40;;;3.02;100.00;99222.44;4984284;28;20050;-78
2023/12/01 09:37:03;;;;;;;40.15;23.33;;;4.50;5.40;;;2.94;100.00;99212.13;5004294;28;20046;-78
2023/12/01 09:39:30;;;;;;;37.03;22.33;;;4.50;5.60;;;2.84;100.00;99193.19;4989835;28;20066;-77
2023/12/01 09:42:03;;;;;;;46.00;24.85;;;4.50;4.80;;;2.95;100.00;99205.22;4989733;28;20129;-76
2023/12/01 09:44:30;;;;;;;45.97;24.10;;;4.60;4.20;;;2.98;100.00;99208.66;5005194;28;20472;-77
2023/12/01 09:46:59;;;;;;;42.45;26.77;;;4.60;2.30;;;2.82;100.00;99178.53;4990762;28;20496;-75
2023/12/01 09:49:30;;;;;;;41.72;24.30;;;4.60;5.50;;;3.14;100.00;99221.47;5004747;28;20074;-78
2023/12/01 09:51:58;;;;;;;36.88;22.50;;;4.70;3.20;;;3.05;100.00;99209.44;5013454;28;20113;-77
2023/12/01 09:54:26;;;;;;;42.90;24.60;;;4.90;4.10;;;3.24;100.00;99223.03;4997762;28;20224;-78
2023/12/01 09:56:54;;;;;;;44.65;26.08;;;4.70;1.00;;;3.25;100.00;99231.72;5007685;28;20046;-79
2023/12/01 09:59:23;;;;;;;44.80;26.23;;;4.70;1.90;;;3.16;100.00;99217.09;5005496;28;20121;-76
2023/12/01 10:01:52;;;;;;;44.40;25.38;;;4.70;1.00;;;3.12;100.00;99203.28;5004465;28;20133;-77
2023/12/01 10:04:20;;;;;;;43.50;25.17;;;4.70;1.00;;;3.29;100.00;99241.19;4988267;28;20047;-77
2023/12/01 10:06:49;;;;;;;40.30;25.20;;;4.70;1.00;;;3.16;100.00;99211.91;5004486;28;20117;-78
2023/12/01 10:09:32;;;;;;;42.20;26.77;;;4.70;1.00;;;3.04;100.00;99215.47;4992369;28;20462;-76
2023/12/01 10:12:12;;;;;;;40.50;26.77;;;5.10;1.00;;;3.02;100.00;99214.63;4975374;28;20054;-79
2023/12/01 10:14:42;;;;;;;44.25;25.50;;;4.70;1.00;;;3.07;100.00;99212.88;4988050;28;20058;-79
2023/12/01 10:17:12;;;;;;;42.42;26.05;;;4.70;1.00;;;3.02;100.00;99185.22;4976203;28;20042;-77
2023/12/01 10:19:48;;;;;;;37.00;24.27;;;4.70;1.00;;;3.14;100.00;99200.66;4985859;28;20118;-76
2023/12/01 10:22:19;;;;;;;36.75;22.80;;;4.70;1.00;;;3.24;100.00;99197.03;4987333;28;20100;-76
2023/12/01 10:24:55;;;;;;;40.88;24.23;;;4.70;1.00;;;3.33;100.00;99200.41;4986293;28;20404;-77
2023/12/01 10:27:23;;;;;;;41.88;23.15;;;6.10;1.00;;;3.24;100.00;99176.25;5003146;28;20054;-77
2023/12/01 10:29:50;;;;;;;36.17;22.90;;;5.20;1.00;;;3.36;100.00;99189.97;5004691;28;20061;-76